• Join FlightAware (Why Join?)
  • Login
  • US Flag 
10:37AM EST


 

Airport Tracker/Info


-or-


 

Live Flight TrackerFlight Track Log ✈ ASQ5941 ✈ 19-May-2013 ✈ KORD - KAVP

Flight Track Log - Related Links

Times and Time Zones

All times are in EDT time to prevent confusion due to time zone crossing. See the ASQ5941 flight status page for this flight to view local times or setup timezone preferences in your user account.

Time Position Orientation Groundspeed Altitude Reporting Facility
EDT Latitude Longitude Course Direction KTS MPH feet Rate Location/Type
03:32PM 41.9667 -87.8500 80° East 181 208 2,600  Level Chicago TRACON
03:33PM 41.9667 -87.7667 90° East 242 278 3,800 1,560 Climbing Chicago TRACON
03:35PM 42.0583 -87.3133 78° East  Level FlightAware Approximate
03:35PM 41.9914 -87.5847 80° East 279 321 7,400  Level Chicago Center
03:36PM 42.0811 -87.1644 78° East  Level FlightAware Approximate
03:36PM 42.0158 -87.4781 73° East 296 341 8,900  Level Chicago Center
03:37PM 42.1000 -87.0151 90° East  Level FlightAware Approximate
03:37PM 42.0431 -87.3619 72° East 322 371 10,500  Level Chicago Center
03:38PM 42.1162 -86.8702 80° East  Level FlightAware Approximate
03:38PM 42.0767 -87.2164 73° East 341 392 11,900  Level Chicago Center
03:39PM 42.1061 -87.0881 73° East 358 412 12,700 900 Climbing Chicago Center
03:40PM 42.1161 -86.9467 85° East 377 434 13,800 1,020 Climbing Chicago Center
03:41PM 42.1211 -86.8031 87° East 384 442 14,900 1,020 Climbing Chicago Center
03:42PM 42.1267 -86.6650 87° East 387 445 16,000 1,080 Climbing Chicago Center
03:43PM 42.1328 -86.4900 87° East 391 450 17,200 1,020 Climbing Chicago Center
03:44PM 42.1369 -86.3419 88° East 394 453 18,200 960 Climbing Chicago Center
03:46PM 42.1419 -86.1922 87° East 400 460 19,200 960 Climbing Chicago Center
03:47PM 42.1444 -86.0392 89° East 406 467 20,200 960 Climbing Chicago Center
03:48PM 42.1414 -85.8694 91° East 405 466 21,300 1,020 Climbing Chicago Center
03:49PM 42.1397 -85.7133 91° East 414 476 22,400 1,020 Climbing Chicago Center
03:50PM 42.1381 -85.5600 91° East 413 475 23,500 1,080 Climbing Chicago Center
03:51PM 42.1381 -85.4064 90° East 412 474 24,700 1,080 Climbing Chicago Center
03:52PM 42.1378 -85.2600 90° East 403 464 25,700 1,080 Climbing Cleveland Center
03:53PM 42.1356 -85.1086 91° East 403 464 26,900 1,140 Climbing Cleveland Center
03:54PM 42.1350 -84.9575 90° East 403 464 28,000 1,020 Climbing Cleveland Center
03:55PM 42.1281 -84.8111 94° East 403 464 29,000 900 Climbing Cleveland Center
03:56PM 42.1292 -84.6656 89° East 397 457 29,900 900 Climbing Cleveland Center
03:57PM 42.1261 -84.5142 92° East 397 457 30,900 900 Climbing Cleveland Center
03:58PM 42.1275 -84.3519 89° East 397 457 31,800 540 Climbing Cleveland Center
03:59PM 42.1511 -84.1992 78° East 397 457 32,000 -180 Climbing Cleveland Center
04:00PM 42.1667 -84.0347 83° East 415 478 31,500 -540 Descending Cleveland Center
04:01PM 42.1656 -83.8581 90° East 444 511 31,000 -300 Descending Cleveland Center
04:02PM 42.1600 -83.6842 92° East 456 525 31,000  Level Cleveland Center
04:03PM 42.1561 -83.5103 92° East 466 536 31,000  Level Cleveland Center
04:04PM 42.1522 -83.3336 92° East 466 536 31,000  Level Cleveland Center
04:05PM 42.1453 -83.1764 93° East 466 536 31,000  Level Cleveland Center
04:06PM 42.1428 -83.0028 91° East 461 531 31,000  Level Cleveland Center
04:07PM 42.1339 -82.8317 94° East 461 531 31,000  Level Cleveland Center
04:08PM 42.1331 -82.6578 90° East 461 531 31,000  Level Cleveland Center
04:09PM 42.1236 -82.4811 94° East 461 531 31,000  Level Cleveland Center
04:10PM 42.1181 -82.3075 92° East 467 537 31,000  Level Cleveland Center
04:11PM 42.1122 -82.1197 92° East 457 526 31,000  Level Cleveland Center
04:12PM 42.1061 -81.9489 93° East 457 526 31,000  Level Cleveland Center
04:13PM 42.0997 -81.7753 93° East 462 532 31,000  Level Cleveland Center
04:14PM 42.0908 -81.5989 94° East 462 532 31,000  Level Cleveland Center
04:15PM 42.0819 -81.4253 94° East 462 532 31,000  Level Cleveland Center
04:16PM 42.0747 -81.2517 93° East 462 532 31,000  Level Cleveland Center
04:17PM 42.0672 -81.0978 94° East 462 532 31,000  Level Cleveland Center
04:18PM 42.0575 -80.9244 94° East 462 532 31,000  Level Cleveland Center
04:19PM 42.0494 -80.7453 93° East 468 539 31,000  Level Cleveland Center
04:20PM 42.0414 -80.5719 94° East 468 539 31,000  Level Cleveland Center
04:21PM 42.0308 -80.3986 95° East 460 529 31,000  Level Cleveland Center
04:22PM 42.0197 -80.2058 94° East 460 529 31,000  Level Cleveland Center
04:23PM 42.0108 -80.0269 94° East 460 529 31,000  Level Cleveland Center
04:24PM 42.0014 -79.8567 94° East 460 529 31,000  Level Cleveland Center
04:25PM 41.9919 -79.6808 94° East 465 535 31,000  Level Cleveland Center
04:26PM 41.9800 -79.5022 95° East 470 541 31,000  Level Cleveland Center
04:27PM 41.9697 -79.3264 94° East 470 541 31,000  Level Cleveland Center
04:28PM 41.9553 -79.1508 96° East 470 541 31,000  Level Cleveland Center
04:29PM 41.9467 -78.9750 94° East 470 541 31,000  Level Cleveland Center
04:30PM 41.9336 -78.7994 96° East 470 541 31,000  Level Cleveland Center
04:31PM 41.9078 -78.6217 101° East 475 547 31,000 -60 Level Cleveland Center
04:32PM 41.8736 -78.4528 105° East 475 547 30,900 -900 Descending Cleveland Center
04:33PM 41.8431 -78.2781 103° East 475 547 29,300 -2,340 Descending Cleveland Center
04:34PM 41.8103 -78.1064 104° East 475 547 26,300 -2,760 Descending Cleveland Center
04:34PM 41.7906 -78.0072 105° East 468 539 24,600 -1,920 Descending New York Center
04:35PM 41.7592 -77.8369 104° East 468 539 23,000 -840 Descending New York Center
04:36PM 41.7269 -77.6722 105° East 468 539 23,000  Level New York Center
04:37PM 41.6950 -77.5050 104° East 468 539 23,000 -60 Level New York Center
04:38PM 41.6628 -77.3350 104° East 468 539 22,900 -600 Descending New York Center
04:39PM 41.6303 -77.1681 105° East 468 539 21,800 -1,380 Descending New York Center
04:40PM 41.5975 -77.0011 105° East 468 539 20,200 540 Descending New York Center
04:41PM 41.5681 -76.8431 104° East 462 532 23,000 -2,220 Climbing New York Center
04:42PM 41.5639 -76.6792 92° East 443 510 15,800 -5,160 Descending New York Center
04:43PM 41.5661 -76.5103 89° East 429 494 12,900 -2,340 Descending New York Center
04:44PM 41.5664 -76.3717 90° East 392 451 11,200 -1,440 Descending New York Center
04:45PM 41.5489 -76.2564 101° East 340 391 10,100 -1,380 Descending New York Center
04:46PM 41.5425 -76.1644 95° East 292 336 8,500 -1,620 Descending New York Center
04:48PM 41.4770 -76.0221 108° East  Level Estimated
04:55PM 41.3333 -75.7167 114° Southeast  Level FlightAware Approximate
04:56PM 41.3385 -75.7234 114° Southeast  Level Estimated
04:57PM 41.3333 -75.7167 114° Southeast  Level FlightAware Approximate
04:58PM 41.3385 -75.7234 114° Southeast  Level Estimated